sensor_id;sensor_type;location;lat;lon;timestamp;P1;durP1;ratioP1;P2;durP2;ratioP2
21360;SDS011;10839;43.206;23.550;2022-09-02T00:00:54;5.22;;;3.60;;
21360;SDS011;10839;43.206;23.550;2022-09-02T00:03:26;5.47;;;3.50;;
21360;SDS011;10839;43.206;23.550;2022-09-02T00:05:53;5.63;;;3.50;;
21360;SDS011;10839;43.206;23.550;2022-09-02T00:08:20;7.18;;;3.50;;
21360;SDS011;10839;43.206;23.550;2022-09-02T00:10:46;3.92;;;3.45;;
21360;SDS011;10839;43.206;23.550;2022-09-02T00:13:13;4.03;;;3.40;;
21360;SDS011;10839;43.206;23.550;2022-09-02T00:15:41;3.83;;;3.30;;
21360;SDS011;10839;43.206;23.550;2022-09-02T00:18:07;4.32;;;3.35;;
21360;SDS011;10839;43.206;23.550;2022-09-02T00:20:39;3.97;;;3.50;;
21360;SDS011;10839;43.206;23.550;2022-09-02T00:23:06;6.65;;;4.38;;
21360;SDS011;10839;43.206;23.550;2022-09-02T00:25:34;4.90;;;3.90;;
21360;SDS011;10839;43.206;23.550;2022-09-02T00:28:01;5.90;;;3.72;;
21360;SDS011;10839;43.206;23.550;2022-09-02T00:30:27;6.38;;;3.75;;
21360;SDS011;10839;43.206;23.550;2022-09-02T00:32:53;4.35;;;3.70;;
21360;SDS011;10839;43.206;23.550;2022-09-02T00:35:19;6.75;;;3.88;;
21360;SDS011;10839;43.206;23.550;2022-09-02T00:37:45;5.55;;;3.78;;
21360;SDS011;10839;43.206;23.550;2022-09-02T00:40:12;6.63;;;3.75;;
21360;SDS011;10839;43.206;23.550;2022-09-02T00:42:39;4.18;;;3.78;;
21360;SDS011;10839;43.206;23.550;2022-09-02T00:45:06;4.55;;;3.90;;
21360;SDS011;10839;43.206;23.550;2022-09-02T00:47:34;5.80;;;4.60;;
21360;SDS011;10839;43.206;23.550;2022-09-02T00:50:03;7.40;;;4.70;;
21360;SDS011;10839;43.206;23.550;2022-09-02T00:52:33;10.38;;;4.85;;
21360;SDS011;10839;43.206;23.550;2022-09-02T00:55:16;7.10;;;4.82;;
21360;SDS011;10839;43.206;23.550;2022-09-02T00:57:51;6.20;;;5.03;;
21360;SDS011;10839;43.206;23.550;2022-09-02T01:00:28;5.35;;;4.75;;
21360;SDS011;10839;43.206;23.550;2022-09-02T01:02:59;5.95;;;4.80;;
21360;SDS011;10839;43.206;23.550;2022-09-02T01:05:36;6.03;;;5.25;;
21360;SDS011;10839;43.206;23.550;2022-09-02T01:08:09;6.95;;;4.75;;
21360;SDS011;10839;43.206;23.550;2022-09-02T01:10:37;5.07;;;4.55;;
21360;SDS011;10839;43.206;23.550;2022-09-02T01:13:07;5.28;;;4.25;;
21360;SDS011;10839;43.206;23.550;2022-09-02T01:15:37;5.15;;;4.38;;
21360;SDS011;10839;43.206;23.550;2022-09-02T01:18:08;6.25;;;4.00;;
21360;SDS011;10839;43.206;23.550;2022-09-02T01:20:37;8.98;;;3.83;;
21360;SDS011;10839;43.206;23.550;2022-09-02T01:23:05;7.05;;;4.18;;
21360;SDS011;10839;43.206;23.550;2022-09-02T01:25:31;7.57;;;4.72;;
21360;SDS011;10839;43.206;23.550;2022-09-02T01:28:00;5.13;;;4.00;;
21360;SDS011;10839;43.206;23.550;2022-09-02T01:30:29;6.00;;;4.28;;
21360;SDS011;10839;43.206;23.550;2022-09-02T01:32:56;5.68;;;4.43;;
21360;SDS011;10839;43.206;23.550;2022-09-02T01:35:22;6.22;;;5.25;;
21360;SDS011;10839;43.206;23.550;2022-09-02T01:37:52;6.72;;;4.75;;
21360;SDS011;10839;43.206;23.550;2022-09-02T01:40:21;5.65;;;4.90;;
21360;SDS011;10839;43.206;23.550;2022-09-02T01:42:48;6.78;;;5.10;;
21360;SDS011;10839;43.206;23.550;2022-09-02T01:45:21;6.78;;;5.40;;
21360;SDS011;10839;43.206;23.550;2022-09-02T01:47:48;6.72;;;5.22;;
21360;SDS011;10839;43.206;23.550;2022-09-02T01:50:15;8.55;;;4.97;;
21360;SDS011;10839;43.206;23.550;2022-09-02T01:52:42;6.85;;;5.40;;
21360;SDS011;10839;43.206;23.550;2022-09-02T01:55:10;6.78;;;5.40;;
21360;SDS011;10839;43.206;23.550;2022-09-02T01:57:37;7.97;;;5.57;;
21360;SDS011;10839;43.206;23.550;2022-09-02T02:00:05;7.60;;;5.53;;
21360;SDS011;10839;43.206;23.550;2022-09-02T02:02:38;6.65;;;5.70;;
21360;SDS011;10839;43.206;23.550;2022-09-02T02:05:06;49.13;;;31.55;;
21360;SDS011;10839;43.206;23.550;2022-09-02T02:07:33;39.20;;;25.23;;
21360;SDS011;10839;43.206;23.550;2022-09-02T02:09:59;30.48;;;17.77;;
21360;SDS011;10839;43.206;23.550;2022-09-02T02:12:28;30.75;;;18.90;;
21360;SDS011;10839;43.206;23.550;2022-09-02T02:14:55;20.00;;;12.70;;
21360;SDS011;10839;43.206;23.550;2022-09-02T02:17:22;8.85;;;7.05;;
21360;SDS011;10839;43.206;23.550;2022-09-02T02:19:49;8.18;;;5.38;;
21360;SDS011;10839;43.206;23.550;2022-09-02T02:22:15;6.53;;;5.03;;
21360;SDS011;10839;43.206;23.550;2022-09-02T02:24:42;6.20;;;4.50;;
21360;SDS011;10839;43.206;23.550;2022-09-02T02:27:07;6.07;;;4.50;;
21360;SDS011;10839;43.206;23.550;2022-09-02T02:29:33;7.20;;;5.53;;
21360;SDS011;10839;43.206;23.550;2022-09-02T02:31:59;11.80;;;7.97;;
21360;SDS011;10839;43.206;23.550;2022-09-02T02:34:25;8.77;;;6.35;;
21360;SDS011;10839;43.206;23.550;2022-09-02T02:36:51;6.93;;;5.60;;
21360;SDS011;10839;43.206;23.550;2022-09-02T02:39:18;30.35;;;20.40;;
21360;SDS011;10839;43.206;23.550;2022-09-02T02:41:45;52.75;;;31.60;;
21360;SDS011;10839;43.206;23.550;2022-09-02T02:44:12;38.30;;;23.92;;
21360;SDS011;10839;43.206;23.550;2022-09-02T02:46:38;17.85;;;12.15;;
21360;SDS011;10839;43.206;23.550;2022-09-02T02:49:05;13.20;;;7.95;;
21360;SDS011;10839;43.206;23.550;2022-09-02T02:51:32;9.73;;;7.85;;
21360;SDS011;10839;43.206;23.550;2022-09-02T02:54:00;9.25;;;6.85;;
21360;SDS011;10839;43.206;23.550;2022-09-02T02:56:27;9.00;;;7.07;;
21360;SDS011;10839;43.206;23.550;2022-09-02T02:58:55;13.18;;;7.90;;
21360;SDS011;10839;43.206;23.550;2022-09-02T03:01:24;10.75;;;7.45;;
21360;SDS011;10839;43.206;23.550;2022-09-02T03:03:50;11.80;;;8.20;;
21360;SDS011;10839;43.206;23.550;2022-09-02T03:06:20;10.98;;;7.70;;
21360;SDS011;10839;43.206;23.550;2022-09-02T03:08:48;15.10;;;10.02;;
21360;SDS011;10839;43.206;23.550;2022-09-02T03:11:14;13.32;;;8.23;;
21360;SDS011;10839;43.206;23.550;2022-09-02T03:13:42;18.40;;;11.43;;
21360;SDS011;10839;43.206;23.550;2022-09-02T03:16:08;18.38;;;11.48;;
21360;SDS011;10839;43.206;23.550;2022-09-02T03:18:34;13.40;;;8.48;;
21360;SDS011;10839;43.206;23.550;2022-09-02T03:21:00;7.57;;;5.60;;
21360;SDS011;10839;43.206;23.550;2022-09-02T03:23:32;18.95;;;11.52;;
21360;SDS011;10839;43.206;23.550;2022-09-02T03:25:57;10.25;;;6.65;;
21360;SDS011;10839;43.206;23.550;2022-09-02T03:28:34;7.22;;;5.50;;
21360;SDS011;10839;43.206;23.550;2022-09-02T03:31:01;10.45;;;6.43;;
21360;SDS011;10839;43.206;23.550;2022-09-02T03:41:02;7.85;;;5.95;;
21360;SDS011;10839;43.206;23.550;2022-09-02T03:43:27;9.00;;;5.57;;
21360;SDS011;10839;43.206;23.550;2022-09-02T03:45:55;6.45;;;4.82;;
21360;SDS011;10839;43.206;23.550;2022-09-02T03:48:20;7.15;;;4.43;;
21360;SDS011;10839;43.206;23.550;2022-09-02T03:50:47;6.20;;;4.15;;
21360;SDS011;10839;43.206;23.550;2022-09-02T03:53:16;4.97;;;3.90;;
21360;SDS011;10839;43.206;23.550;2022-09-02T03:55:42;22.23;;;13.70;;
21360;SDS011;10839;43.206;23.550;2022-09-02T03:58:11;21.10;;;13.60;;
21360;SDS011;10839;43.206;23.550;2022-09-02T04:00:38;15.82;;;10.70;;
21360;SDS011;10839;43.206;23.550;2022-09-02T04:03:06;41.13;;;24.83;;
21360;SDS011;10839;43.206;23.550;2022-09-02T04:05:33;24.33;;;15.63;;
21360;SDS011;10839;43.206;23.550;2022-09-02T04:07:59;13.88;;;9.40;;
21360;SDS011;10839;43.206;23.550;2022-09-02T04:10:26;9.57;;;6.90;;
21360;SDS011;10839;43.206;23.550;2022-09-02T04:12:53;6.30;;;4.30;;
21360;SDS011;10839;43.206;23.550;2022-09-02T04:15:20;7.63;;;4.90;;
21360;SDS011;10839;43.206;23.550;2022-09-02T04:17:49;6.28;;;4.53;;
21360;SDS011;10839;43.206;23.550;2022-09-02T04:20:18;5.32;;;4.30;;
21360;SDS011;10839;43.206;23.550;2022-09-02T04:22:43;5.85;;;4.95;;
21360;SDS011;10839;43.206;23.550;2022-09-02T04:25:09;5.07;;;4.32;;
21360;SDS011;10839;43.206;23.550;2022-09-02T04:27:36;4.15;;;3.58;;
21360;SDS011;10839;43.206;23.550;2022-09-02T04:30:05;6.13;;;4.15;;
21360;SDS011;10839;43.206;23.550;2022-09-02T04:32:36;4.75;;;4.13;;
21360;SDS011;10839;43.206;23.550;2022-09-02T04:35:03;13.50;;;7.53;;
21360;SDS011;10839;43.206;23.550;2022-09-02T04:37:31;33.83;;;21.48;;
21360;SDS011;10839;43.206;23.550;2022-09-02T04:39:58;14.90;;;10.30;;
21360;SDS011;10839;43.206;23.550;2022-09-02T04:42:24;17.85;;;11.60;;
21360;SDS011;10839;43.206;23.550;2022-09-02T04:44:52;10.30;;;6.72;;
21360;SDS011;10839;43.206;23.550;2022-09-02T04:47:20;6.72;;;4.63;;
21360;SDS011;10839;43.206;23.550;2022-09-02T04:49:49;5.88;;;4.30;;
21360;SDS011;10839;43.206;23.550;2022-09-02T04:52:15;5.97;;;4.50;;
21360;SDS011;10839;43.206;23.550;2022-09-02T04:57:54;7.03;;;4.40;;
21360;SDS011;10839;43.206;23.550;2022-09-02T05:00:20;17.45;;;11.38;;
21360;SDS011;10839;43.206;23.550;2022-09-02T05:02:47;32.17;;;20.38;;
21360;SDS011;10839;43.206;23.550;2022-09-02T05:05:14;14.50;;;10.10;;
21360;SDS011;10839;43.206;23.550;2022-09-02T05:07:40;7.55;;;5.35;;
21360;SDS011;10839;43.206;23.550;2022-09-02T05:10:07;6.60;;;5.35;;
21360;SDS011;10839;43.206;23.550;2022-09-02T05:12:37;6.70;;;5.63;;
21360;SDS011;10839;43.206;23.550;2022-09-02T05:15:06;4.88;;;4.20;;
21360;SDS011;10839;43.206;23.550;2022-09-02T05:17:34;5.15;;;4.47;;
21360;SDS011;10839;43.206;23.550;2022-09-02T05:20:02;6.30;;;4.95;;
21360;SDS011;10839;43.206;23.550;2022-09-02T05:22:31;5.28;;;4.35;;
21360;SDS011;10839;43.206;23.550;2022-09-02T05:25:01;27.50;;;14.57;;
21360;SDS011;10839;43.206;23.550;2022-09-02T05:27:28;12.80;;;8.55;;
21360;SDS011;10839;43.206;23.550;2022-09-02T05:29:55;11.48;;;7.75;;
21360;SDS011;10839;43.206;23.550;2022-09-02T05:32:24;10.05;;;5.85;;
21360;SDS011;10839;43.206;23.550;2022-09-02T05:34:52;7.07;;;5.60;;
21360;SDS011;10839;43.206;23.550;2022-09-02T05:37:20;7.00;;;4.65;;
21360;SDS011;10839;43.206;23.550;2022-09-02T05:39:47;5.15;;;4.35;;
21360;SDS011;10839;43.206;23.550;2022-09-02T05:42:15;6.30;;;5.07;;
21360;SDS011;10839;43.206;23.550;2022-09-02T05:44:43;4.80;;;4.15;;
21360;SDS011;10839;43.206;23.550;2022-09-02T05:47:12;5.00;;;4.50;;
21360;SDS011;10839;43.206;23.550;2022-09-02T05:49:38;4.35;;;3.53;;
21360;SDS011;10839;43.206;23.550;2022-09-02T05:52:08;5.40;;;3.90;;
21360;SDS011;10839;43.206;23.550;2022-09-02T05:54:54;4.93;;;3.60;;
21360;SDS011;10839;43.206;23.550;2022-09-02T05:57:21;4.78;;;3.97;;
21360;SDS011;10839;43.206;23.550;2022-09-02T06:00:04;7.55;;;5.90;;
21360;SDS011;10839;43.206;23.550;2022-09-02T06:02:41;6.60;;;5.22;;
21360;SDS011;10839;43.206;23.550;2022-09-02T06:05:15;4.30;;;3.90;;
21360;SDS011;10839;43.206;23.550;2022-09-02T06:07:47;4.18;;;3.08;;
21360;SDS011;10839;43.206;23.550;2022-09-02T06:10:18;4.68;;;3.63;;
21360;SDS011;10839;43.206;23.550;2022-09-02T06:12:44;3.72;;;3.17;;
21360;SDS011;10839;43.206;23.550;2022-09-02T06:15:11;5.28;;;3.53;;
21360;SDS011;10839;43.206;23.550;2022-09-02T06:17:40;4.80;;;3.60;;
21360;SDS011;10839;43.206;23.550;2022-09-02T06:20:08;4.20;;;3.75;;
21360;SDS011;10839;43.206;23.550;2022-09-02T06:22:34;3.33;;;3.03;;
21360;SDS011;10839;43.206;23.550;2022-09-02T06:25:00;3.83;;;3.40;;
21360;SDS011;10839;43.206;23.550;2022-09-02T06:27:26;3.88;;;3.47;;
21360;SDS011;10839;43.206;23.550;2022-09-02T06:29:53;5.63;;;4.32;;
21360;SDS011;10839;43.206;23.550;2022-09-02T06:32:22;3.72;;;3.35;;
21360;SDS011;10839;43.206;23.550;2022-09-02T06:34:52;4.47;;;3.63;;
21360;SDS011;10839;43.206;23.550;2022-09-02T06:37:18;5.35;;;3.85;;
21360;SDS011;10839;43.206;23.550;2022-09-02T06:39:44;3.58;;;3.03;;
21360;SDS011;10839;43.206;23.550;2022-09-02T06:42:17;3.20;;;2.90;;
21360;SDS011;10839;43.206;23.550;2022-09-02T06:45:00;3.38;;;2.88;;
21360;SDS011;10839;43.206;23.550;2022-09-02T06:47:29;4.18;;;2.72;;
21360;SDS011;10839;43.206;23.550;2022-09-02T06:49:56;4.32;;;2.95;;
21360;SDS011;10839;43.206;23.550;2022-09-02T06:52:22;3.80;;;3.38;;
21360;SDS011;10839;43.206;23.550;2022-09-02T06:54:48;4.13;;;3.30;;
21360;SDS011;10839;43.206;23.550;2022-09-02T06:57:17;3.78;;;3.10;;
21360;SDS011;10839;43.206;23.550;2022-09-02T06:59:43;3.45;;;2.60;;
21360;SDS011;10839;43.206;23.550;2022-09-02T07:02:11;2.70;;;2.50;;
21360;SDS011;10839;43.206;23.550;2022-09-02T07:04:39;4.65;;;2.50;;
21360;SDS011;10839;43.206;23.550;2022-09-02T07:07:24;3.40;;;2.92;;
21360;SDS011;10839;43.206;23.550;2022-09-02T07:09:55;4.57;;;3.08;;
21360;SDS011;10839;43.206;23.550;2022-09-02T07:12:21;5.00;;;3.25;;
21360;SDS011;10839;43.206;23.550;2022-09-02T07:14:52;3.72;;;2.97;;
21360;SDS011;10839;43.206;23.550;2022-09-02T07:17:33;4.10;;;3.20;;
21360;SDS011;10839;43.206;23.550;2022-09-02T07:20:03;4.05;;;3.50;;
21360;SDS011;10839;43.206;23.550;2022-09-02T07:22:36;3.53;;;3.17;;
21360;SDS011;10839;43.206;23.550;2022-09-02T07:25:05;4.78;;;3.75;;
21360;SDS011;10839;43.206;23.550;2022-09-02T07:27:32;3.42;;;3.13;;
21360;SDS011;10839;43.206;23.550;2022-09-02T07:29:59;3.72;;;3.05;;
21360;SDS011;10839;43.206;23.550;2022-09-02T07:32:25;3.53;;;3.13;;
21360;SDS011;10839;43.206;23.550;2022-09-02T07:34:51;4.25;;;3.85;;
21360;SDS011;10839;43.206;23.550;2022-09-02T07:37:17;3.85;;;2.92;;
21360;SDS011;10839;43.206;23.550;2022-09-02T07:39:43;4.22;;;3.50;;
21360;SDS011;10839;43.206;23.550;2022-09-02T07:42:13;3.83;;;3.45;;
21360;SDS011;10839;43.206;23.550;2022-09-02T07:44:40;4.93;;;3.58;;
21360;SDS011;10839;43.206;23.550;2022-09-02T07:47:07;4.47;;;3.72;;
21360;SDS011;10839;43.206;23.550;2022-09-02T07:49:37;5.07;;;4.38;;
21360;SDS011;10839;43.206;23.550;2022-09-02T07:52:03;6.47;;;4.10;;
21360;SDS011;10839;43.206;23.550;2022-09-02T07:54:30;3.22;;;2.92;;
21360;SDS011;10839;43.206;23.550;2022-09-02T07:56:59;3.80;;;3.25;;
21360;SDS011;10839;43.206;23.550;2022-09-02T07:59:25;5.85;;;5.20;;
21360;SDS011;10839;43.206;23.550;2022-09-02T08:01:54;5.57;;;5.10;;
21360;SDS011;10839;43.206;23.550;2022-09-02T08:04:21;4.47;;;4.07;;
21360;SDS011;10839;43.206;23.550;2022-09-02T08:06:49;5.22;;;4.03;;
21360;SDS011;10839;43.206;23.550;2022-09-02T08:09:17;6.65;;;3.78;;
21360;SDS011;10839;43.206;23.550;2022-09-02T08:11:45;5.13;;;4.30;;
21360;SDS011;10839;43.206;23.550;2022-09-02T08:14:15;4.72;;;4.32;;
21360;SDS011;10839;43.206;23.550;2022-09-02T08:16:44;4.90;;;4.40;;
21360;SDS011;10839;43.206;23.550;2022-09-02T08:19:11;10.80;;;7.28;;
21360;SDS011;10839;43.206;23.550;2022-09-02T08:21:39;7.93;;;7.18;;
21360;SDS011;10839;43.206;23.550;2022-09-02T08:24:05;6.10;;;5.50;;
21360;SDS011;10839;43.206;23.550;2022-09-02T08:26:31;6.53;;;5.82;;
21360;SDS011;10839;43.206;23.550;2022-09-02T08:29:05;4.47;;;4.13;;
21360;SDS011;10839;43.206;23.550;2022-09-02T08:31:33;4.10;;;3.70;;
21360;SDS011;10839;43.206;23.550;2022-09-02T08:34:01;4.75;;;3.80;;
21360;SDS011;10839;43.206;23.550;2022-09-02T08:36:28;6.22;;;3.80;;
21360;SDS011;10839;43.206;23.550;2022-09-02T08:38:54;4.10;;;3.47;;
21360;SDS011;10839;43.206;23.550;2022-09-02T08:41:24;3.25;;;2.95;;
21360;SDS011;10839;43.206;23.550;2022-09-02T08:43:58;4.70;;;2.83;;
21360;SDS011;10839;43.206;23.550;2022-09-02T08:46:27;4.40;;;3.08;;
21360;SDS011;10839;43.206;23.550;2022-09-02T08:51:34;3.90;;;3.50;;
21360;SDS011;10839;43.206;23.550;2022-09-02T08:54:08;5.68;;;3.40;;
21360;SDS011;10839;43.206;23.550;2022-09-02T08:56:56;3.78;;;3.33;;
21360;SDS011;10839;43.206;23.550;2022-09-02T08:59:23;4.05;;;3.35;;
21360;SDS011;10839;43.206;23.550;2022-09-02T09:05:01;4.25;;;3.55;;
21360;SDS011;10839;43.206;23.550;2022-09-02T09:07:49;5.72;;;5.13;;
21360;SDS011;10839;43.206;23.550;2022-09-02T09:21:41;11.15;;;5.15;;
21360;SDS011;10839;43.206;23.550;2022-09-02T09:24:25;6.22;;;5.18;;
21360;SDS011;10839;43.206;23.550;2022-09-02T09:27:20;6.68;;;5.07;;
21360;SDS011;10839;43.206;23.550;2022-09-02T09:29:47;6.88;;;5.25;;
21360;SDS011;10839;43.206;23.550;2022-09-02T09:32:20;14.10;;;6.30;;
21360;SDS011;10839;43.206;23.550;2022-09-02T09:37:33;7.30;;;4.65;;
21360;SDS011;10839;43.206;23.550;2022-09-02T09:40:45;6.18;;;5.30;;
21360;SDS011;10839;43.206;23.550;2022-09-02T09:42:56;6.55;;;4.80;;
21360;SDS011;10839;43.206;23.550;2022-09-02T09:45:42;5.47;;;4.38;;
21360;SDS011;10839;43.206;23.550;2022-09-02T09:53:27;6.50;;;4.82;;
21360;SDS011;10839;43.206;23.550;2022-09-02T09:58:29;6.50;;;4.78;;
21360;SDS011;10839;43.206;23.550;2022-09-02T10:01:17;4.90;;;4.40;;
21360;SDS011;10839;43.206;23.550;2022-09-02T10:03:48;8.13;;;4.88;;
21360;SDS011;10839;43.206;23.550;2022-09-02T10:06:24;5.38;;;4.88;;
21360;SDS011;10839;43.206;23.550;2022-09-02T10:09:01;6.63;;;4.90;;
21360;SDS011;10839;43.206;23.550;2022-09-02T10:11:58;7.28;;;5.20;;
21360;SDS011;10839;43.206;23.550;2022-09-02T10:14:29;5.20;;;4.60;;
21360;SDS011;10839;43.206;23.550;2022-09-02T10:22:31;8.40;;;6.05;;
21360;SDS011;10839;43.206;23.550;2022-09-02T10:28:07;5.97;;;5.13;;
21360;SDS011;10839;43.206;23.550;2022-09-02T10:30:48;5.83;;;5.07;;
21360;SDS011;10839;43.206;23.550;2022-09-02T10:33:40;7.63;;;5.18;;
21360;SDS011;10839;43.206;23.550;2022-09-02T10:36:24;7.22;;;5.45;;
21360;SDS011;10839;43.206;23.550;2022-09-02T10:39:17;7.95;;;5.72;;
21360;SDS011;10839;43.206;23.550;2022-09-02T10:41:50;6.15;;;5.07;;
21360;SDS011;10839;43.206;23.550;2022-09-02T10:47:27;6.22;;;5.38;;
21360;SDS011;10839;43.206;23.550;2022-09-02T10:50:21;10.20;;;6.00;;
21360;SDS011;10839;43.206;23.550;2022-09-02T10:56:07;7.85;;;5.80;;
21360;SDS011;10839;43.206;23.550;2022-09-02T10:59:02;6.57;;;5.13;;
21360;SDS011;10839;43.206;23.550;2022-09-02T11:01:45;6.35;;;5.50;;
21360;SDS011;10839;43.206;23.550;2022-09-02T11:06:56;7.05;;;5.90;;
21360;SDS011;10839;43.206;23.550;2022-09-02T11:09:32;6.35;;;5.47;;
21360;SDS011;10839;43.206;23.550;2022-09-02T11:12:15;5.97;;;5.38;;
21360;SDS011;10839;43.206;23.550;2022-09-02T11:28:37;7.68;;;6.10;;
21360;SDS011;10839;43.206;23.550;2022-09-02T11:36:45;9.57;;;6.55;;
21360;SDS011;10839;43.206;23.550;2022-09-02T11:39:30;7.32;;;6.03;;
21360;SDS011;10839;43.206;23.550;2022-09-02T11:42:05;9.20;;;6.97;;
21360;SDS011;10839;43.206;23.550;2022-09-02T11:52:27;8.23;;;7.05;;
21360;SDS011;10839;43.206;23.550;2022-09-02T11:57:51;6.72;;;5.97;;
21360;SDS011;10839;43.206;23.550;2022-09-02T12:03:25;7.22;;;5.90;;
21360;SDS011;10839;43.206;23.550;2022-09-02T12:06:06;7.13;;;6.40;;
21360;SDS011;10839;43.206;23.550;2022-09-02T12:11:02;7.07;;;6.03;;
21360;SDS011;10839;43.206;23.550;2022-09-02T12:13:38;8.25;;;6.20;;
21360;SDS011;10839;43.206;23.550;2022-09-02T12:21:22;10.57;;;6.30;;
21360;SDS011;10839;43.206;23.550;2022-09-02T12:26:19;7.35;;;5.97;;
21360;SDS011;10839;43.206;23.550;2022-09-02T12:28:47;8.70;;;5.97;;
21360;SDS011;10839;43.206;23.550;2022-09-02T12:33:53;6.28;;;5.50;;
21360;SDS011;10839;43.206;23.550;2022-09-02T12:42:33;13.60;;;6.15;;
21360;SDS011;10839;43.206;23.550;2022-09-02T12:47:28;6.97;;;5.80;;
21360;SDS011;10839;43.206;23.550;2022-09-02T12:50:03;9.55;;;6.20;;
21360;SDS011;10839;43.206;23.550;2022-09-02T12:57:51;13.52;;;8.52;;
21360;SDS011;10839;43.206;23.550;2022-09-02T13:00:30;9.88;;;8.32;;
21360;SDS011;10839;43.206;23.550;2022-09-02T13:03:10;15.88;;;11.95;;
21360;SDS011;10839;43.206;23.550;2022-09-02T13:22:00;13.40;;;9.07;;
21360;SDS011;10839;43.206;23.550;2022-09-02T13:30:19;14.93;;;10.50;;
21360;SDS011;10839;43.206;23.550;2022-09-02T13:33:00;12.50;;;10.48;;
21360;SDS011;10839;43.206;23.550;2022-09-02T13:35:32;20.13;;;15.63;;
21360;SDS011;10839;43.206;23.550;2022-09-02T13:38:02;13.57;;;11.18;;
21360;SDS011;10839;43.206;23.550;2022-09-02T13:40:29;15.07;;;11.95;;
21360;SDS011;10839;43.206;23.550;2022-09-02T13:43:01;14.52;;;11.52;;
21360;SDS011;10839;43.206;23.550;2022-09-02T13:45:29;11.80;;;10.38;;
21360;SDS011;10839;43.206;23.550;2022-09-02T13:47:59;14.30;;;11.15;;
21360;SDS011;10839;43.206;23.550;2022-09-02T13:50:31;13.52;;;11.40;;
21360;SDS011;10839;43.206;23.550;2022-09-02T13:52:59;14.65;;;11.75;;
21360;SDS011;10839;43.206;23.550;2022-09-02T13:55:27;15.85;;;12.57;;
21360;SDS011;10839;43.206;23.550;2022-09-02T14:00:35;19.10;;;15.63;;
21360;SDS011;10839;43.206;23.550;2022-09-02T14:03:04;20.88;;;15.52;;
21360;SDS011;10839;43.206;23.550;2022-09-02T14:05:32;22.73;;;16.52;;
21360;SDS011;10839;43.206;23.550;2022-09-02T14:08:04;21.05;;;16.63;;
21360;SDS011;10839;43.206;23.550;2022-09-02T14:10:33;19.23;;;14.57;;
21360;SDS011;10839;43.206;23.550;2022-09-02T14:13:03;18.27;;;14.00;;
21360;SDS011;10839;43.206;23.550;2022-09-02T14:15:33;17.05;;;13.40;;
21360;SDS011;10839;43.206;23.550;2022-09-02T14:18:10;14.85;;;11.27;;
21360;SDS011;10839;43.206;23.550;2022-09-02T14:23:34;16.05;;;12.38;;
21360;SDS011;10839;43.206;23.550;2022-09-02T14:26:02;13.55;;;11.32;;
21360;SDS011;10839;43.206;23.550;2022-09-02T14:28:30;14.48;;;11.55;;
21360;SDS011;10839;43.206;23.550;2022-09-02T14:31:02;12.38;;;10.88;;
21360;SDS011;10839;43.206;23.550;2022-09-02T14:36:28;14.05;;;12.27;;
21360;SDS011;10839;43.206;23.550;2022-09-02T14:41:53;34.03;;;23.77;;
21360;SDS011;10839;43.206;23.550;2022-09-02T14:44:24;26.83;;;19.02;;
21360;SDS011;10839;43.206;23.550;2022-09-02T14:46:59;24.52;;;18.13;;
21360;SDS011;10839;43.206;23.550;2022-09-02T14:49:34;15.43;;;12.23;;
21360;SDS011;10839;43.206;23.550;2022-09-02T14:52:04;14.25;;;11.57;;
21360;SDS011;10839;43.206;23.550;2022-09-02T14:54:54;15.18;;;11.18;;
21360;SDS011;10839;43.206;23.550;2022-09-02T14:57:28;13.90;;;11.68;;
21360;SDS011;10839;43.206;23.550;2022-09-02T14:59:56;12.10;;;10.63;;
21360;SDS011;10839;43.206;23.550;2022-09-02T15:04:53;13.77;;;10.95;;
21360;SDS011;10839;43.206;23.550;2022-09-02T15:07:20;32.03;;;20.77;;
21360;SDS011;10839;43.206;23.550;2022-09-02T15:09:47;25.85;;;18.15;;
21360;SDS011;10839;43.206;23.550;2022-09-02T15:12:18;15.93;;;12.35;;
21360;SDS011;10839;43.206;23.550;2022-09-02T15:14:49;12.65;;;10.43;;
21360;SDS011;10839;43.206;23.550;2022-09-02T15:17:18;13.35;;;10.55;;
21360;SDS011;10839;43.206;23.550;2022-09-02T15:19:45;12.73;;;9.95;;
21360;SDS011;10839;43.206;23.550;2022-09-02T15:22:12;12.95;;;10.25;;
21360;SDS011;10839;43.206;23.550;2022-09-02T15:24:39;14.57;;;10.65;;
21360;SDS011;10839;43.206;23.550;2022-09-02T15:27:08;16.55;;;11.32;;
21360;SDS011;10839;43.206;23.550;2022-09-02T15:29:37;15.95;;;11.20;;
21360;SDS011;10839;43.206;23.550;2022-09-02T15:32:03;13.77;;;9.85;;
21360;SDS011;10839;43.206;23.550;2022-09-02T15:34:30;11.48;;;9.13;;
21360;SDS011;10839;43.206;23.550;2022-09-02T15:36:57;15.98;;;10.48;;
21360;SDS011;10839;43.206;23.550;2022-09-02T15:39:23;12.88;;;10.45;;
21360;SDS011;10839;43.206;23.550;2022-09-02T15:41:50;15.48;;;11.18;;
21360;SDS011;10839;43.206;23.550;2022-09-02T15:44:18;13.90;;;10.70;;
21360;SDS011;10839;43.206;23.550;2022-09-02T15:46:44;10.13;;;8.38;;
21360;SDS011;10839;43.206;23.550;2022-09-02T15:49:11;15.57;;;10.90;;
21360;SDS011;10839;43.206;23.550;2022-09-02T15:51:41;21.27;;;14.70;;
21360;SDS011;10839;43.206;23.550;2022-09-02T15:54:13;14.65;;;9.35;;
21360;SDS011;10839;43.206;23.550;2022-09-02T15:56:42;10.63;;;7.70;;
21360;SDS011;10839;43.206;23.550;2022-09-02T15:59:16;10.40;;;7.00;;
21360;SDS011;10839;43.206;23.550;2022-09-02T16:01:52;8.32;;;4.70;;
21360;SDS011;10839;43.206;23.550;2022-09-02T16:04:50;6.25;;;3.60;;
21360;SDS011;10839;43.206;23.550;2022-09-02T16:07:16;4.18;;;3.30;;
21360;SDS011;10839;43.206;23.550;2022-09-02T16:09:42;2.72;;;2.00;;
21360;SDS011;10839;43.206;23.550;2022-09-02T16:12:07;4.10;;;2.08;;
21360;SDS011;10839;43.206;23.550;2022-09-02T16:14:34;1.73;;;1.30;;
21360;SDS011;10839;43.206;23.550;2022-09-02T16:17:01;1.77;;;0.98;;
21360;SDS011;10839;43.206;23.550;2022-09-02T16:19:27;1.77;;;1.00;;
21360;SDS011;10839;43.206;23.550;2022-09-02T16:21:54;1.35;;;0.90;;
21360;SDS011;10839;43.206;23.550;2022-09-02T16:24:20;2.50;;;0.95;;
21360;SDS011;10839;43.206;23.550;2022-09-02T16:26:47;2.72;;;1.13;;
21360;SDS011;10839;43.206;23.550;2022-09-02T16:29:15;5.10;;;1.60;;
21360;SDS011;10839;43.206;23.550;2022-09-02T16:31:42;10.63;;;5.97;;
21360;SDS011;10839;43.206;23.550;2022-09-02T16:34:14;18.13;;;10.15;;
21360;SDS011;10839;43.206;23.550;2022-09-02T16:36:43;8.45;;;5.55;;
21360;SDS011;10839;43.206;23.550;2022-09-02T16:39:11;2.10;;;1.30;;
21360;SDS011;10839;43.206;23.550;2022-09-02T16:41:44;3.70;;;1.95;;
21360;SDS011;10839;43.206;23.550;2022-09-02T16:44:13;2.90;;;1.23;;
21360;SDS011;10839;43.206;23.550;2022-09-02T16:46:41;2.75;;;1.90;;
21360;SDS011;10839;43.206;23.550;2022-09-02T16:49:08;6.13;;;4.05;;
21360;SDS011;10839;43.206;23.550;2022-09-02T16:51:36;20.27;;;12.18;;
21360;SDS011;10839;43.206;23.550;2022-09-02T16:54:04;35.53;;;21.48;;
21360;SDS011;10839;43.206;23.550;2022-09-02T16:56:32;10.98;;;6.60;;
21360;SDS011;10839;43.206;23.550;2022-09-02T16:58:59;2.47;;;1.93;;
21360;SDS011;10839;43.206;23.550;2022-09-02T17:01:27;5.18;;;2.60;;
21360;SDS011;10839;43.206;23.550;2022-09-02T17:03:54;1.95;;;1.17;;
21360;SDS011;10839;43.206;23.550;2022-09-02T17:06:20;1.33;;;0.90;;
21360;SDS011;10839;43.206;23.550;2022-09-02T17:08:45;2.10;;;1.00;;
21360;SDS011;10839;43.206;23.550;2022-09-02T17:13:40;2.28;;;0.80;;
21360;SDS011;10839;43.206;23.550;2022-09-02T17:16:06;1.27;;;0.70;;
21360;SDS011;10839;43.206;23.550;2022-09-02T17:18:33;1.20;;;0.88;;